sensor_id;sensor_type;location;lat;lon;timestamp;P1;durP1;ratioP1;P2;durP2;ratioP2
11111;SDS011;5609;49.466;8.468;2022-09-27T00:00:32;3.60;;;1.40;;
11111;SDS011;5609;49.466;8.468;2022-09-27T00:03:00;2.53;;;1.33;;
11111;SDS011;5609;49.466;8.468;2022-09-27T00:05:28;2.07;;;1.43;;
11111;SDS011;5609;49.466;8.468;2022-09-27T00:07:55;1.70;;;1.20;;
11111;SDS011;5609;49.466;8.468;2022-09-27T00:10:22;1.20;;;1.10;;
11111;SDS011;5609;49.466;8.468;2022-09-27T00:12:49;1.50;;;1.17;;
11111;SDS011;5609;49.466;8.468;2022-09-27T00:15:17;1.50;;;1.30;;
11111;SDS011;5609;49.466;8.468;2022-09-27T00:17:44;2.40;;;1.10;;
11111;SDS011;5609;49.466;8.468;2022-09-27T00:20:17;1.43;;;1.10;;
11111;SDS011;5609;49.466;8.468;2022-09-27T00:22:45;2.20;;;1.10;;
11111;SDS011;5609;49.466;8.468;2022-09-27T00:25:12;1.40;;;1.30;;
11111;SDS011;5609;49.466;8.468;2022-09-27T00:27:40;3.37;;;1.47;;
11111;SDS011;5609;49.466;8.468;2022-09-27T00:30:07;2.13;;;1.27;;
11111;SDS011;5609;49.466;8.468;2022-09-27T00:32:35;2.50;;;1.30;;
11111;SDS011;5609;49.466;8.468;2022-09-27T00:35:02;1.63;;;1.20;;
11111;SDS011;5609;49.466;8.468;2022-09-27T00:37:31;1.70;;;1.20;;
11111;SDS011;5609;49.466;8.468;2022-09-27T00:39:58;1.30;;;1.20;;
11111;SDS011;5609;49.466;8.468;2022-09-27T00:42:25;2.13;;;1.30;;
11111;SDS011;5609;49.466;8.468;2022-09-27T00:44:59;2.10;;;1.50;;
11111;SDS011;5609;49.466;8.468;2022-09-27T00:47:29;1.23;;;1.13;;
11111;SDS011;5609;49.466;8.468;2022-09-27T00:50:00;1.20;;;1.10;;
11111;SDS011;5609;49.466;8.468;2022-09-27T00:52:30;1.33;;;1.23;;
11111;SDS011;5609;49.466;8.468;2022-09-27T00:55:01;1.47;;;1.20;;
11111;SDS011;5609;49.466;8.468;2022-09-27T00:57:29;1.83;;;1.37;;
11111;SDS011;5609;49.466;8.468;2022-09-27T00:59:57;2.63;;;1.37;;
11111;SDS011;5609;49.466;8.468;2022-09-27T01:02:26;1.60;;;1.23;;
11111;SDS011;5609;49.466;8.468;2022-09-27T01:04:54;1.53;;;1.30;;
11111;SDS011;5609;49.466;8.468;2022-09-27T01:07:21;1.60;;;1.20;;
11111;SDS011;5609;49.466;8.468;2022-09-27T01:09:49;1.40;;;1.30;;
11111;SDS011;5609;49.466;8.468;2022-09-27T01:12:19;1.60;;;1.20;;
11111;SDS011;5609;49.466;8.468;2022-09-27T01:14:54;2.47;;;1.40;;
11111;SDS011;5609;49.466;8.468;2022-09-27T01:17:29;1.30;;;1.20;;
11111;SDS011;5609;49.466;8.468;2022-09-27T01:20:14;1.60;;;1.30;;
11111;SDS011;5609;49.466;8.468;2022-09-27T01:22:50;1.40;;;1.30;;
11111;SDS011;5609;49.466;8.468;2022-09-27T01:25:26;2.13;;;1.40;;
11111;SDS011;5609;49.466;8.468;2022-09-27T01:30:46;1.50;;;1.20;;
11111;SDS011;5609;49.466;8.468;2022-09-27T01:33:21;1.40;;;1.30;;
11111;SDS011;5609;49.466;8.468;2022-09-27T01:35:53;1.67;;;1.37;;
11111;SDS011;5609;49.466;8.468;2022-09-27T01:38:22;1.40;;;1.30;;
11111;SDS011;5609;49.466;8.468;2022-09-27T01:40:52;2.33;;;1.33;;
11111;SDS011;5609;49.466;8.468;2022-09-27T01:43:23;1.50;;;1.23;;
11111;SDS011;5609;49.466;8.468;2022-09-27T01:45:54;1.33;;;1.23;;
11111;SDS011;5609;49.466;8.468;2022-09-27T01:48:23;2.53;;;1.50;;
11111;SDS011;5609;49.466;8.468;2022-09-27T01:50:51;1.47;;;1.27;;
11111;SDS011;5609;49.466;8.468;2022-09-27T01:53:20;1.73;;;1.23;;
11111;SDS011;5609;49.466;8.468;2022-09-27T01:55:49;1.93;;;1.20;;
11111;SDS011;5609;49.466;8.468;2022-09-27T01:58:18;1.77;;;1.40;;
11111;SDS011;5609;49.466;8.468;2022-09-27T02:00:47;2.07;;;1.03;;
11111;SDS011;5609;49.466;8.468;2022-09-27T02:03:17;2.10;;;1.37;;
11111;SDS011;5609;49.466;8.468;2022-09-27T02:05:46;4.40;;;1.40;;
11111;SDS011;5609;49.466;8.468;2022-09-27T02:08:17;1.47;;;1.27;;
11111;SDS011;5609;49.466;8.468;2022-09-27T02:10:46;3.27;;;1.53;;
11111;SDS011;5609;49.466;8.468;2022-09-27T02:13:15;1.90;;;1.30;;
11111;SDS011;5609;49.466;8.468;2022-09-27T02:15:46;2.87;;;1.40;;
11111;SDS011;5609;49.466;8.468;2022-09-27T02:18:15;2.57;;;1.40;;
11111;SDS011;5609;49.466;8.468;2022-09-27T02:20:45;2.50;;;1.27;;
11111;SDS011;5609;49.466;8.468;2022-09-27T02:23:17;3.20;;;1.37;;
11111;SDS011;5609;49.466;8.468;2022-09-27T02:25:46;3.03;;;1.30;;
11111;SDS011;5609;49.466;8.468;2022-09-27T02:28:18;1.80;;;1.43;;
11111;SDS011;5609;49.466;8.468;2022-09-27T02:30:48;1.50;;;1.30;;
11111;SDS011;5609;49.466;8.468;2022-09-27T02:33:16;2.20;;;1.40;;
11111;SDS011;5609;49.466;8.468;2022-09-27T02:35:45;3.13;;;1.60;;
11111;SDS011;5609;49.466;8.468;2022-09-27T02:38:12;4.63;;;1.60;;
11111;SDS011;5609;49.466;8.468;2022-09-27T02:40:41;3.30;;;1.50;;
11111;SDS011;5609;49.466;8.468;2022-09-27T02:43:09;2.57;;;1.63;;
11111;SDS011;5609;49.466;8.468;2022-09-27T02:45:38;3.10;;;1.40;;
11111;SDS011;5609;49.466;8.468;2022-09-27T02:48:11;3.00;;;1.50;;
11111;SDS011;5609;49.466;8.468;2022-09-27T02:50:45;3.07;;;1.70;;
11111;SDS011;5609;49.466;8.468;2022-09-27T02:53:17;2.10;;;1.43;;
11111;SDS011;5609;49.466;8.468;2022-09-27T02:55:48;3.83;;;1.70;;
11111;SDS011;5609;49.466;8.468;2022-09-27T02:58:21;3.23;;;1.90;;
11111;SDS011;5609;49.466;8.468;2022-09-27T03:00:54;3.80;;;2.10;;
11111;SDS011;5609;49.466;8.468;2022-09-27T03:03:25;3.33;;;2.10;;
11111;SDS011;5609;49.466;8.468;2022-09-27T03:05:56;2.53;;;1.80;;
11111;SDS011;5609;49.466;8.468;2022-09-27T03:08:27;2.83;;;1.70;;
11111;SDS011;5609;49.466;8.468;2022-09-27T03:10:54;3.07;;;1.80;;
11111;SDS011;5609;49.466;8.468;2022-09-27T03:13:21;3.13;;;1.70;;
11111;SDS011;5609;49.466;8.468;2022-09-27T03:15:49;2.50;;;1.60;;
11111;SDS011;5609;49.466;8.468;2022-09-27T03:18:16;2.80;;;1.63;;
11111;SDS011;5609;49.466;8.468;2022-09-27T03:20:43;2.00;;;1.43;;
11111;SDS011;5609;49.466;8.468;2022-09-27T03:23:11;2.43;;;1.50;;
11111;SDS011;5609;49.466;8.468;2022-09-27T03:25:39;2.10;;;1.40;;
11111;SDS011;5609;49.466;8.468;2022-09-27T03:28:06;1.97;;;1.20;;
11111;SDS011;5609;49.466;8.468;2022-09-27T03:30:33;2.10;;;1.30;;
11111;SDS011;5609;49.466;8.468;2022-09-27T03:33:01;1.53;;;1.17;;
11111;SDS011;5609;49.466;8.468;2022-09-27T03:35:28;1.90;;;1.40;;
11111;SDS011;5609;49.466;8.468;2022-09-27T03:37:56;1.60;;;1.30;;
11111;SDS011;5609;49.466;8.468;2022-09-27T03:40:24;2.43;;;1.57;;
11111;SDS011;5609;49.466;8.468;2022-09-27T03:42:51;2.33;;;1.30;;
11111;SDS011;5609;49.466;8.468;2022-09-27T03:45:19;1.63;;;1.33;;
11111;SDS011;5609;49.466;8.468;2022-09-27T03:47:46;1.73;;;1.30;;
11111;SDS011;5609;49.466;8.468;2022-09-27T03:50:13;2.10;;;1.40;;
11111;SDS011;5609;49.466;8.468;2022-09-27T03:52:41;2.97;;;1.40;;
11111;SDS011;5609;49.466;8.468;2022-09-27T03:55:09;2.20;;;1.63;;
11111;SDS011;5609;49.466;8.468;2022-09-27T03:57:37;2.53;;;1.50;;
11111;SDS011;5609;49.466;8.468;2022-09-27T04:00:05;3.00;;;1.50;;
11111;SDS011;5609;49.466;8.468;2022-09-27T04:02:33;3.60;;;1.70;;
11111;SDS011;5609;49.466;8.468;2022-09-27T04:05:00;2.83;;;1.50;;
11111;SDS011;5609;49.466;8.468;2022-09-27T04:07:27;3.10;;;1.57;;
11111;SDS011;5609;49.466;8.468;2022-09-27T04:09:55;2.30;;;1.50;;
11111;SDS011;5609;49.466;8.468;2022-09-27T04:12:22;3.13;;;1.70;;
11111;SDS011;5609;49.466;8.468;2022-09-27T04:14:51;4.17;;;1.70;;
11111;SDS011;5609;49.466;8.468;2022-09-27T04:17:19;3.93;;;1.47;;
11111;SDS011;5609;49.466;8.468;2022-09-27T04:19:46;3.23;;;1.60;;
11111;SDS011;5609;49.466;8.468;2022-09-27T04:22:13;3.20;;;1.73;;
11111;SDS011;5609;49.466;8.468;2022-09-27T04:24:40;2.90;;;1.63;;
11111;SDS011;5609;49.466;8.468;2022-09-27T04:27:07;3.90;;;1.57;;
11111;SDS011;5609;49.466;8.468;2022-09-27T04:29:35;2.03;;;1.20;;
11111;SDS011;5609;49.466;8.468;2022-09-27T04:32:07;2.47;;;1.50;;
11111;SDS011;5609;49.466;8.468;2022-09-27T04:34:35;1.83;;;1.70;;
11111;SDS011;5609;49.466;8.468;2022-09-27T04:37:19;2.37;;;1.57;;
11111;SDS011;5609;49.466;8.468;2022-09-27T04:39:46;2.23;;;1.40;;
11111;SDS011;5609;49.466;8.468;2022-09-27T04:42:14;1.90;;;1.50;;
11111;SDS011;5609;49.466;8.468;2022-09-27T04:44:41;2.03;;;1.30;;
11111;SDS011;5609;49.466;8.468;2022-09-27T04:47:10;2.30;;;1.50;;
11111;SDS011;5609;49.466;8.468;2022-09-27T04:49:37;1.43;;;1.33;;
11111;SDS011;5609;49.466;8.468;2022-09-27T04:52:04;1.80;;;1.20;;
11111;SDS011;5609;49.466;8.468;2022-09-27T04:54:31;2.00;;;1.43;;
11111;SDS011;5609;49.466;8.468;2022-09-27T04:56:59;3.37;;;1.80;;
11111;SDS011;5609;49.466;8.468;2022-09-27T04:59:26;2.67;;;1.43;;
11111;SDS011;5609;49.466;8.468;2022-09-27T05:01:53;2.93;;;1.70;;
11111;SDS011;5609;49.466;8.468;2022-09-27T05:04:25;2.63;;;1.60;;
11111;SDS011;5609;49.466;8.468;2022-09-27T05:06:52;3.67;;;1.60;;
11111;SDS011;5609;49.466;8.468;2022-09-27T05:09:19;1.87;;;1.30;;
11111;SDS011;5609;49.466;8.468;2022-09-27T05:11:46;1.73;;;1.20;;
11111;SDS011;5609;49.466;8.468;2022-09-27T05:14:14;2.60;;;1.27;;
11111;SDS011;5609;49.466;8.468;2022-09-27T05:16:41;2.77;;;1.40;;
11111;SDS011;5609;49.466;8.468;2022-09-27T05:19:08;3.53;;;1.30;;
11111;SDS011;5609;49.466;8.468;2022-09-27T05:21:37;3.03;;;1.30;;
11111;SDS011;5609;49.466;8.468;2022-09-27T05:24:04;2.40;;;1.10;;
11111;SDS011;5609;49.466;8.468;2022-09-27T05:26:31;1.40;;;1.00;;
11111;SDS011;5609;49.466;8.468;2022-09-27T05:28:58;1.70;;;1.10;;
11111;SDS011;5609;49.466;8.468;2022-09-27T05:31:26;2.23;;;1.50;;
11111;SDS011;5609;49.466;8.468;2022-09-27T05:33:53;1.53;;;1.10;;
11111;SDS011;5609;49.466;8.468;2022-09-27T05:36:20;2.73;;;1.27;;
11111;SDS011;5609;49.466;8.468;2022-09-27T05:38:50;1.70;;;1.00;;
11111;SDS011;5609;49.466;8.468;2022-09-27T05:41:18;1.47;;;1.17;;
11111;SDS011;5609;49.466;8.468;2022-09-27T05:43:45;1.00;;;0.80;;
11111;SDS011;5609;49.466;8.468;2022-09-27T05:46:12;1.47;;;1.10;;
11111;SDS011;5609;49.466;8.468;2022-09-27T05:48:39;2.37;;;0.90;;
11111;SDS011;5609;49.466;8.468;2022-09-27T05:51:06;2.10;;;1.37;;
11111;SDS011;5609;49.466;8.468;2022-09-27T05:53:34;3.00;;;1.17;;
11111;SDS011;5609;49.466;8.468;2022-09-27T05:56:03;1.07;;;0.70;;
11111;SDS011;5609;49.466;8.468;2022-09-27T05:58:30;1.30;;;1.00;;
11111;SDS011;5609;49.466;8.468;2022-09-27T06:00:58;1.07;;;0.80;;
11111;SDS011;5609;49.466;8.468;2022-09-27T06:03:25;1.20;;;1.10;;
11111;SDS011;5609;49.466;8.468;2022-09-27T06:05:52;1.70;;;1.20;;
11111;SDS011;5609;49.466;8.468;2022-09-27T06:08:20;1.17;;;1.00;;
11111;SDS011;5609;49.466;8.468;2022-09-27T06:10:47;3.77;;;1.10;;
11111;SDS011;5609;49.466;8.468;2022-09-27T06:13:15;1.40;;;0.93;;
11111;SDS011;5609;49.466;8.468;2022-09-27T06:15:43;1.27;;;1.00;;
11111;SDS011;5609;49.466;8.468;2022-09-27T06:18:12;1.57;;;1.00;;
11111;SDS011;5609;49.466;8.468;2022-09-27T06:20:40;3.67;;;1.30;;
11111;SDS011;5609;49.466;8.468;2022-09-27T06:23:08;3.83;;;1.10;;
11111;SDS011;5609;49.466;8.468;2022-09-27T06:25:36;2.87;;;1.40;;
11111;SDS011;5609;49.466;8.468;2022-09-27T06:28:04;2.07;;;0.97;;
11111;SDS011;5609;49.466;8.468;2022-09-27T06:30:32;1.53;;;0.90;;
11111;SDS011;5609;49.466;8.468;2022-09-27T06:33:00;1.20;;;0.90;;
11111;SDS011;5609;49.466;8.468;2022-09-27T06:35:28;1.63;;;0.73;;
11111;SDS011;5609;49.466;8.468;2022-09-27T06:37:56;1.40;;;0.83;;
11111;SDS011;5609;49.466;8.468;2022-09-27T06:40:23;0.70;;;0.70;;
11111;SDS011;5609;49.466;8.468;2022-09-27T06:42:51;1.47;;;0.80;;
11111;SDS011;5609;49.466;8.468;2022-09-27T06:45:18;0.67;;;0.67;;
11111;SDS011;5609;49.466;8.468;2022-09-27T06:47:47;0.50;;;0.50;;
11111;SDS011;5609;49.466;8.468;2022-09-27T06:50:14;1.30;;;0.67;;
11111;SDS011;5609;49.466;8.468;2022-09-27T06:52:45;1.47;;;0.80;;
11111;SDS011;5609;49.466;8.468;2022-09-27T06:55:13;1.57;;;0.90;;
11111;SDS011;5609;49.466;8.468;2022-09-27T06:57:40;1.13;;;0.70;;
11111;SDS011;5609;49.466;8.468;2022-09-27T07:00:25;1.57;;;0.70;;
11111;SDS011;5609;49.466;8.468;2022-09-27T07:02:54;1.63;;;0.80;;
11111;SDS011;5609;49.466;8.468;2022-09-27T07:05:25;1.07;;;0.57;;
11111;SDS011;5609;49.466;8.468;2022-09-27T07:07:52;0.70;;;0.50;;
11111;SDS011;5609;49.466;8.468;2022-09-27T07:10:22;0.50;;;0.50;;
11111;SDS011;5609;49.466;8.468;2022-09-27T07:12:49;0.77;;;0.70;;
11111;SDS011;5609;49.466;8.468;2022-09-27T07:15:17;1.67;;;0.80;;
11111;SDS011;5609;49.466;8.468;2022-09-27T07:17:45;1.30;;;0.70;;
11111;SDS011;5609;49.466;8.468;2022-09-27T07:20:13;2.40;;;0.87;;
11111;SDS011;5609;49.466;8.468;2022-09-27T07:22:41;1.80;;;0.60;;
11111;SDS011;5609;49.466;8.468;2022-09-27T07:25:09;0.70;;;0.63;;
11111;SDS011;5609;49.466;8.468;2022-09-27T07:27:37;1.70;;;1.47;;
11111;SDS011;5609;49.466;8.468;2022-09-27T07:30:06;1.53;;;1.27;;
11111;SDS011;5609;49.466;8.468;2022-09-27T07:32:33;0.83;;;0.67;;
11111;SDS011;5609;49.466;8.468;2022-09-27T07:35:01;0.73;;;0.70;;
11111;SDS011;5609;49.466;8.468;2022-09-27T07:37:31;1.33;;;0.80;;
11111;SDS011;5609;49.466;8.468;2022-09-27T07:39:59;2.80;;;0.70;;
11111;SDS011;5609;49.466;8.468;2022-09-27T07:42:26;1.73;;;1.03;;
11111;SDS011;5609;49.466;8.468;2022-09-27T07:44:53;1.03;;;0.83;;
11111;SDS011;5609;49.466;8.468;2022-09-27T07:47:21;0.80;;;0.60;;
11111;SDS011;5609;49.466;8.468;2022-09-27T07:49:48;4.43;;;1.73;;
11111;SDS011;5609;49.466;8.468;2022-09-27T07:52:16;3.03;;;0.87;;
11111;SDS011;5609;49.466;8.468;2022-09-27T07:54:44;1.20;;;0.80;;
11111;SDS011;5609;49.466;8.468;2022-09-27T07:57:12;1.47;;;1.20;;
11111;SDS011;5609;49.466;8.468;2022-09-27T07:59:39;3.33;;;1.40;;
11111;SDS011;5609;49.466;8.468;2022-09-27T08:02:07;1.23;;;0.90;;
11111;SDS011;5609;49.466;8.468;2022-09-27T08:04:36;1.10;;;1.00;;
11111;SDS011;5609;49.466;8.468;2022-09-27T08:07:03;2.80;;;1.53;;
11111;SDS011;5609;49.466;8.468;2022-09-27T08:09:31;2.20;;;1.20;;
11111;SDS011;5609;49.466;8.468;2022-09-27T08:11:59;2.50;;;0.87;;
11111;SDS011;5609;49.466;8.468;2022-09-27T08:14:28;1.43;;;0.87;;
11111;SDS011;5609;49.466;8.468;2022-09-27T08:16:55;1.67;;;0.90;;
11111;SDS011;5609;49.466;8.468;2022-09-27T08:19:23;1.43;;;0.87;;
11111;SDS011;5609;49.466;8.468;2022-09-27T08:21:50;1.30;;;0.77;;
11111;SDS011;5609;49.466;8.468;2022-09-27T08:24:18;1.47;;;0.73;;
11111;SDS011;5609;49.466;8.468;2022-09-27T08:26:46;0.90;;;0.57;;
11111;SDS011;5609;49.466;8.468;2022-09-27T08:29:14;1.10;;;0.77;;
11111;SDS011;5609;49.466;8.468;2022-09-27T08:31:41;2.23;;;0.83;;
11111;SDS011;5609;49.466;8.468;2022-09-27T08:34:08;1.70;;;0.90;;
11111;SDS011;5609;49.466;8.468;2022-09-27T08:36:36;0.70;;;0.70;;
11111;SDS011;5609;49.466;8.468;2022-09-27T08:39:03;19.57;;;2.90;;
11111;SDS011;5609;49.466;8.468;2022-09-27T08:41:33;1.73;;;1.03;;
11111;SDS011;5609;49.466;8.468;2022-09-27T08:44:11;4.03;;;1.00;;
11111;SDS011;5609;49.466;8.468;2022-09-27T08:46:43;5.60;;;1.10;;
11111;SDS011;5609;49.466;8.468;2022-09-27T08:49:14;2.87;;;1.20;;
11111;SDS011;5609;49.466;8.468;2022-09-27T08:51:43;4.30;;;1.00;;
11111;SDS011;5609;49.466;8.468;2022-09-27T08:54:15;3.73;;;1.07;;
11111;SDS011;5609;49.466;8.468;2022-09-27T08:56:44;2.37;;;1.20;;
11111;SDS011;5609;49.466;8.468;2022-09-27T08:59:13;2.10;;;1.30;;
11111;SDS011;5609;49.466;8.468;2022-09-27T09:01:47;2.57;;;1.20;;
11111;SDS011;5609;49.466;8.468;2022-09-27T09:04:14;1.67;;;1.37;;
11111;SDS011;5609;49.466;8.468;2022-09-27T09:06:45;1.73;;;1.23;;
11111;SDS011;5609;49.466;8.468;2022-09-27T09:09:18;1.90;;;1.40;;
11111;SDS011;5609;49.466;8.468;2022-09-27T09:11:48;3.33;;;1.30;;
11111;SDS011;5609;49.466;8.468;2022-09-27T09:14:45;3.20;;;1.43;;
11111;SDS011;5609;49.466;8.468;2022-09-27T09:17:18;2.40;;;1.57;;
11111;SDS011;5609;49.466;8.468;2022-09-27T09:19:50;1.40;;;1.10;;
11111;SDS011;5609;49.466;8.468;2022-09-27T09:22:25;1.40;;;1.03;;
11111;SDS011;5609;49.466;8.468;2022-09-27T09:24:58;3.57;;;1.60;;
11111;SDS011;5609;49.466;8.468;2022-09-27T09:27:29;3.53;;;1.50;;
11111;SDS011;5609;49.466;8.468;2022-09-27T09:30:03;4.53;;;1.47;;
11111;SDS011;5609;49.466;8.468;2022-09-27T09:32:36;5.43;;;1.80;;
11111;SDS011;5609;49.466;8.468;2022-09-27T09:35:05;2.60;;;1.60;;
11111;SDS011;5609;49.466;8.468;2022-09-27T09:37:36;3.97;;;1.63;;
11111;SDS011;5609;49.466;8.468;2022-09-27T09:40:06;2.63;;;1.50;;
11111;SDS011;5609;49.466;8.468;2022-09-27T09:42:41;3.10;;;1.40;;
11111;SDS011;5609;49.466;8.468;2022-09-27T09:45:12;4.13;;;1.73;;
11111;SDS011;5609;49.466;8.468;2022-09-27T09:47:43;2.67;;;1.60;;
11111;SDS011;5609;49.466;8.468;2022-09-27T09:50:14;4.17;;;1.90;;
11111;SDS011;5609;49.466;8.468;2022-09-27T09:52:45;2.37;;;1.70;;
11111;SDS011;5609;49.466;8.468;2022-09-27T09:55:16;2.43;;;1.87;;
11111;SDS011;5609;49.466;8.468;2022-09-27T09:57:48;5.37;;;2.00;;
11111;SDS011;5609;49.466;8.468;2022-09-27T10:00:16;3.77;;;1.80;;
11111;SDS011;5609;49.466;8.468;2022-09-27T10:02:45;5.30;;;2.10;;
11111;SDS011;5609;49.466;8.468;2022-09-27T10:05:13;6.10;;;1.80;;
11111;SDS011;5609;49.466;8.468;2022-09-27T10:07:41;5.47;;;1.73;;
11111;SDS011;5609;49.466;8.468;2022-09-27T10:10:10;4.37;;;1.90;;
11111;SDS011;5609;49.466;8.468;2022-09-27T10:12:39;3.77;;;2.00;;
11111;SDS011;5609;49.466;8.468;2022-09-27T10:15:10;2.70;;;1.70;;
11111;SDS011;5609;49.466;8.468;2022-09-27T10:17:40;2.37;;;1.50;;
11111;SDS011;5609;49.466;8.468;2022-09-27T10:20:13;3.30;;;1.50;;
11111;SDS011;5609;49.466;8.468;2022-09-27T10:22:44;2.73;;;1.40;;
11111;SDS011;5609;49.466;8.468;2022-09-27T10:25:13;1.63;;;1.30;;
11111;SDS011;5609;49.466;8.468;2022-09-27T10:27:42;1.43;;;1.30;;
11111;SDS011;5609;49.466;8.468;2022-09-27T10:30:20;2.13;;;1.13;;
11111;SDS011;5609;49.466;8.468;2022-09-27T10:32:49;1.63;;;1.13;;
11111;SDS011;5609;49.466;8.468;2022-09-27T10:35:19;1.27;;;1.17;;
11111;SDS011;5609;49.466;8.468;2022-09-27T10:37:46;1.77;;;1.10;;
11111;SDS011;5609;49.466;8.468;2022-09-27T10:40:26;2.23;;;1.10;;
11111;SDS011;5609;49.466;8.468;2022-09-27T10:42:54;1.87;;;1.30;;
11111;SDS011;5609;49.466;8.468;2022-09-27T10:45:25;1.77;;;1.00;;
11111;SDS011;5609;49.466;8.468;2022-09-27T10:47:53;1.47;;;1.20;;
11111;SDS011;5609;49.466;8.468;2022-09-27T10:50:24;1.27;;;1.00;;
11111;SDS011;5609;49.466;8.468;2022-09-27T10:53:01;1.47;;;1.10;;
11111;SDS011;5609;49.466;8.468;2022-09-27T10:55:30;2.33;;;1.50;;
11111;SDS011;5609;49.466;8.468;2022-09-27T10:57:58;4.13;;;1.47;;
11111;SDS011;5609;49.466;8.468;2022-09-27T11:00:26;1.87;;;1.00;;
11111;SDS011;5609;49.466;8.468;2022-09-27T11:02:55;1.20;;;1.10;;
11111;SDS011;5609;49.466;8.468;2022-09-27T11:05:31;2.30;;;1.20;;
11111;SDS011;5609;49.466;8.468;2022-09-27T11:07:59;1.33;;;0.90;;
11111;SDS011;5609;49.466;8.468;2022-09-27T11:10:28;1.23;;;1.00;;
11111;SDS011;5609;49.466;8.468;2022-09-27T11:13:10;2.17;;;1.27;;
11111;SDS011;5609;49.466;8.468;2022-09-27T11:15:41;1.37;;;1.00;;
11111;SDS011;5609;49.466;8.468;2022-09-27T11:18:12;3.23;;;1.13;;
11111;SDS011;5609;49.466;8.468;2022-09-27T11:20:45;2.33;;;1.53;;
11111;SDS011;5609;49.466;8.468;2022-09-27T11:23:21;2.37;;;1.57;;
11111;SDS011;5609;49.466;8.468;2022-09-27T11:25:55;2.47;;;1.60;;
11111;SDS011;5609;49.466;8.468;2022-09-27T11:28:27;3.20;;;1.70;;
11111;SDS011;5609;49.466;8.468;2022-09-27T11:30:57;2.13;;;1.60;;
11111;SDS011;5609;49.466;8.468;2022-09-27T11:33:38;3.20;;;1.80;;
11111;SDS011;5609;49.466;8.468;2022-09-27T11:36:09;4.43;;;1.70;;
11111;SDS011;5609;49.466;8.468;2022-09-27T11:38:44;2.80;;;1.67;;
11111;SDS011;5609;49.466;8.468;2022-09-27T11:41:22;3.00;;;1.50;;
11111;SDS011;5609;49.466;8.468;2022-09-27T11:43:57;3.07;;;1.47;;
11111;SDS011;5609;49.466;8.468;2022-09-27T11:46:28;4.53;;;1.93;;
11111;SDS011;5609;49.466;8.468;2022-09-27T11:49:00;3.20;;;1.60;;
11111;SDS011;5609;49.466;8.468;2022-09-27T11:51:36;4.33;;;2.10;;
11111;SDS011;5609;49.466;8.468;2022-09-27T11:54:18;2.80;;;2.10;;
11111;SDS011;5609;49.466;8.468;2022-09-27T11:56:48;3.00;;;1.80;;
11111;SDS011;5609;49.466;8.468;2022-09-27T12:01:59;3.00;;;1.80;;
11111;SDS011;5609;49.466;8.468;2022-09-27T12:04:45;2.80;;;1.93;;
11111;SDS011;5609;49.466;8.468;2022-09-27T12:07:18;2.40;;;2.13;;
11111;SDS011;5609;49.466;8.468;2022-09-27T12:09:47;2.67;;;1.97;;
11111;SDS011;5609;49.466;8.468;2022-09-27T12:12:16;1.73;;;1.27;;
11111;SDS011;5609;49.466;8.468;2022-09-27T12:14:45;2.00;;;1.23;;
11111;SDS011;5609;49.466;8.468;2022-09-27T12:17:14;2.47;;;1.37;;
11111;SDS011;5609;49.466;8.468;2022-09-27T12:19:43;2.03;;;1.23;;
11111;SDS011;5609;49.466;8.468;2022-09-27T12:22:13;1.70;;;1.10;;
11111;SDS011;5609;49.466;8.468;2022-09-27T12:24:41;1.20;;;1.10;;
11111;SDS011;5609;49.466;8.468;2022-09-27T12:27:12;1.13;;;0.70;;
11111;SDS011;5609;49.466;8.468;2022-09-27T12:29:40;1.30;;;1.00;;
11111;SDS011;5609;49.466;8.468;2022-09-27T12:32:10;1.30;;;1.00;;
11111;SDS011;5609;49.466;8.468;2022-09-27T12:34:40;2.67;;;1.37;;
11111;SDS011;5609;49.466;8.468;2022-09-27T12:37:10;1.90;;;1.40;;
11111;SDS011;5609;49.466;8.468;2022-09-27T12:39:45;1.37;;;1.10;;
11111;SDS011;5609;49.466;8.468;2022-09-27T12:42:15;1.70;;;1.30;;
11111;SDS011;5609;49.466;8.468;2022-09-27T12:44:43;2.43;;;1.10;;
11111;SDS011;5609;49.466;8.468;2022-09-27T12:47:13;2.10;;;1.20;;
11111;SDS011;5609;49.466;8.468;2022-09-27T12:49:45;1.30;;;0.97;;
11111;SDS011;5609;49.466;8.468;2022-09-27T12:52:15;2.43;;;1.10;;
11111;SDS011;5609;49.466;8.468;2022-09-27T12:54:54;2.00;;;1.10;;
11111;SDS011;5609;49.466;8.468;2022-09-27T12:57:30;1.33;;;1.07;;
11111;SDS011;5609;49.466;8.468;2022-09-27T13:00:04;1.90;;;1.00;;
11111;SDS011;5609;49.466;8.468;2022-09-27T13:02:46;1.17;;;1.00;;
11111;SDS011;5609;49.466;8.468;2022-09-27T13:05:39;2.40;;;1.10;;
11111;SDS011;5609;49.466;8.468;2022-09-27T13:08:17;2.63;;;1.20;;
11111;SDS011;5609;49.466;8.468;2022-09-27T13:10:52;1.50;;;1.03;;
11111;SDS011;5609;49.466;8.468;2022-09-27T13:13:21;2.20;;;1.20;;
11111;SDS011;5609;49.466;8.468;2022-09-27T13:15:52;1.83;;;1.03;;
11111;SDS011;5609;49.466;8.468;2022-09-27T13:18:28;2.67;;;1.27;;
11111;SDS011;5609;49.466;8.468;2022-09-27T13:20:55;1.83;;;1.20;;
11111;SDS011;5609;49.466;8.468;2022-09-27T13:26:19;2.47;;;1.30;;
11111;SDS011;5609;49.466;8.468;2022-09-27T13:34:15;4.40;;;1.40;;
11111;SDS011;5609;49.466;8.468;2022-09-27T13:39:45;4.23;;;1.10;;
11111;SDS011;5609;49.466;8.468;2022-09-27T13:42:19;1.70;;;1.03;;
11111;SDS011;5609;49.466;8.468;2022-09-27T13:44:59;1.87;;;1.07;;
11111;SDS011;5609;49.466;8.468;2022-09-27T13:47:34;1.23;;;0.90;;
11111;SDS011;5609;49.466;8.468;2022-09-27T13:50:12;1.47;;;0.97;;
11111;SDS011;5609;49.466;8.468;2022-09-27T13:52:41;2.07;;;0.83;;
11111;SDS011;5609;49.466;8.468;2022-09-27T13:57:53;1.33;;;0.67;;
11111;SDS011;5609;49.466;8.468;2022-09-27T14:00:22;1.07;;;0.60;;
11111;SDS011;5609;49.466;8.468;2022-09-27T14:02:54;1.37;;;0.67;;
11111;SDS011;5609;49.466;8.468;2022-09-27T14:05:25;1.63;;;0.70;;
11111;SDS011;5609;49.466;8.468;2022-09-27T14:07:53;0.73;;;0.70;;
11111;SDS011;5609;49.466;8.468;2022-09-27T14:10:23;2.03;;;0.90;;
11111;SDS011;5609;49.466;8.468;2022-09-27T14:12:53;1.47;;;0.80;;
11111;SDS011;5609;49.466;8.468;2022-09-27T14:15:21;1.80;;;1.00;;
11111;SDS011;5609;49.466;8.468;2022-09-27T14:17:49;2.30;;;0.90;;
11111;SDS011;5609;49.466;8.468;2022-09-27T14:20:33;1.40;;;1.00;;
11111;SDS011;5609;49.466;8.468;2022-09-27T14:23:01;0.93;;;0.90;;
11111;SDS011;5609;49.466;8.468;2022-09-27T14:25:31;1.10;;;0.73;;
11111;SDS011;5609;49.466;8.468;2022-09-27T14:28:00;2.43;;;1.17;;
11111;SDS011;5609;49.466;8.468;2022-09-27T14:30:27;1.00;;;0.90;;
11111;SDS011;5609;49.466;8.468;2022-09-27T14:32:55;1.30;;;0.83;;
11111;SDS011;5609;49.466;8.468;2022-09-27T14:35:27;1.00;;;0.90;;
11111;SDS011;5609;49.466;8.468;2022-09-27T14:38:12;1.27;;;0.90;;
11111;SDS011;5609;49.466;8.468;2022-09-27T14:40:41;0.77;;;0.60;;
11111;SDS011;5609;49.466;8.468;2022-09-27T14:43:14;1.40;;;0.97;;
11111;SDS011;5609;49.466;8.468;2022-09-27T14:45:42;1.47;;;0.80;;
11111;SDS011;5609;49.466;8.468;2022-09-27T14:48:19;1.83;;;0.77;;
11111;SDS011;5609;49.466;8.468;2022-09-27T14:50:53;1.53;;;0.73;;
11111;SDS011;5609;49.466;8.468;2022-09-27T14:53:25;1.97;;;0.90;;
11111;SDS011;5609;49.466;8.468;2022-09-27T14:55:52;2.13;;;0.90;;
11111;SDS011;5609;49.466;8.468;2022-09-27T14:58:21;2.23;;;0.90;;
11111;SDS011;5609;49.466;8.468;2022-09-27T15:00:49;0.87;;;0.70;;
11111;SDS011;5609;49.466;8.468;2022-09-27T15:03:18;2.73;;;1.27;;
11111;SDS011;5609;49.466;8.468;2022-09-27T15:05:48;1.90;;;1.10;;
11111;SDS011;5609;49.466;8.468;2022-09-27T15:08:16;1.90;;;1.20;;
11111;SDS011;5609;49.466;8.468;2022-09-27T15:10:44;1.33;;;1.00;;
11111;SDS011;5609;49.466;8.468;2022-09-27T15:13:11;1.93;;;1.03;;
11111;SDS011;5609;49.466;8.468;2022-09-27T15:15:41;2.23;;;0.77;;
11111;SDS011;5609;49.466;8.468;2022-09-27T15:20:51;2.03;;;0.83;;
11111;SDS011;5609;49.466;8.468;2022-09-27T15:23:23;1.50;;;0.80;;
11111;SDS011;5609;49.466;8.468;2022-09-27T15:25:56;1.63;;;0.80;;
11111;SDS011;5609;49.466;8.468;2022-09-27T15:28:24;1.93;;;0.90;;
11111;SDS011;5609;49.466;8.468;2022-09-27T15:30:55;2.33;;;0.90;;
11111;SDS011;5609;49.466;8.468;2022-09-27T15:33:24;1.10;;;0.90;;
11111;SDS011;5609;49.466;8.468;2022-09-27T15:35:53;1.67;;;1.00;;
11111;SDS011;5609;49.466;8.468;2022-09-27T15:38:22;2.87;;;1.50;;